Time;durP1;ratioP1;P1;durP2;ratioP2;P2;SDS_P1;SDS_P2;PMS_P1;PMS_P2;Temp;Humidity;BMP_temperature;BMP_pressure;BME280_temperature;BME280_humidity;BME280_pressure;Samples;Min_cycle;Max_cycle;Signal;HPM_P1;HPM_P2
2023/08/13 00:01:12;;;;;;;2.67;1.83;;;22.90;57.30;;;;;;4976687;28;20774;-50
2023/08/13 00:03:40;;;;;;;4.85;2.42;;;22.90;57.40;;;;;;4970128;28;20114;-49
2023/08/13 00:06:07;;;;;;;5.75;2.55;;;22.90;57.40;;;;;;4970418;28;20130;-47
2023/08/13 00:08:38;;;;;;;5.40;2.40;;;22.80;57.40;;;;;;4969571;28;20043;-50
2023/08/13 00:11:11;;;;;;;2.10;1.90;;;22.80;57.50;;;;;;4973185;28;20401;-50
2023/08/13 00:13:45;;;;;;;3.78;2.38;;;22.70;57.60;;;;;;4973695;28;20145;-48
2023/08/13 00:16:14;;;;;;;4.35;2.58;;;22.70;57.50;;;;;;4968539;28;20074;-51
2023/08/13 00:18:43;;;;;;;4.85;2.42;;;22.70;57.50;;;;;;4970201;28;20074;-48
2023/08/13 00:21:09;;;;;;;3.72;2.20;;;22.60;57.60;;;;;;4970097;28;20099;-51
2023/08/13 00:23:36;;;;;;;7.65;2.50;;;22.60;57.70;;;;;;4969890;28;20647;-47
2023/08/13 00:26:03;;;;;;;6.50;2.78;;;22.60;57.70;;;;;;4964892;28;20078;-49
2023/08/13 00:28:32;;;;;;;3.80;3.00;;;22.60;57.80;;;;;;4969717;28;20064;-47
2023/08/13 00:31:05;;;;;;;3.90;2.58;;;22.50;57.80;;;;;;4975655;28;20448;-51
2023/08/13 00:33:35;;;;;;;3.95;2.47;;;22.50;57.90;;;;;;4965315;28;20142;-51
2023/08/13 00:36:06;;;;;;;6.00;2.10;;;22.50;58.00;;;;;;4951294;28;20423;-51
2023/08/13 00:38:36;;;;;;;4.03;2.55;;;22.50;58.00;;;;;;4967013;28;20051;-51
2023/08/13 00:41:03;;;;;;;5.22;2.42;;;22.40;58.00;;;;;;4975607;28;20053;-50
2023/08/13 00:43:32;;;;;;;4.57;2.42;;;22.40;57.90;;;;;;4969509;28;20042;-51
2023/08/13 00:46:02;;;;;;;6.75;2.55;;;22.40;58.60;;;;;;4969804;28;20085;-50
2023/08/13 00:48:31;;;;;;;2.42;2.08;;;22.30;57.90;;;;;;4972639;28;20568;-50
2023/08/13 00:50:59;;;;;;;4.15;2.20;;;22.30;57.90;;;;;;4968527;28;20039;-50
2023/08/13 00:53:27;;;;;;;6.55;2.47;;;22.30;58.00;;;;;;4970446;28;20039;-49
2023/08/13 00:55:55;;;;;;;4.05;2.30;;;22.20;58.00;;;;;;4954711;28;20050;-51
2023/08/13 00:58:25;;;;;;;5.95;2.83;;;22.20;58.20;;;;;;4969678;28;20050;-50
2023/08/13 01:00:57;;;;;;;9.65;3.13;;;22.20;58.50;;;;;;4973785;28;20038;-47
2023/08/13 01:03:24;;;;;;;4.22;2.67;;;22.10;58.40;;;;;;4962393;28;20043;-49
2023/08/13 01:06:01;;;;;;;4.78;3.03;;;22.10;58.40;;;;;;4969687;28;20043;-50
2023/08/13 01:09:10;;;;;;;5.57;2.10;;;22.00;58.80;;;;;;4966413;28;20043;-47
2023/08/13 01:12:08;;;;;;;4.18;2.08;;;22.00;58.90;;;;;;4965405;28;20075;-51
2023/08/13 01:14:51;;;;;;;4.97;3.05;;;22.00;58.90;;;;;;4962349;28;20043;-47
2023/08/13 01:17:21;;;;;;;6.38;2.42;;;21.90;58.90;;;;;;4967255;28;20105;-51
2023/08/13 01:19:48;;;;;;;3.03;1.98;;;21.90;58.60;;;;;;4968619;28;20509;-49
2023/08/13 01:22:23;;;;;;;3.33;2.20;;;21.80;58.60;;;;;;4952239;28;20046;-51
2023/08/13 01:24:54;;;;;;;5.60;2.60;;;21.80;59.00;;;;;;4969757;28;20406;-50
2023/08/13 01:27:37;;;;;;;4.18;2.28;;;21.80;58.90;;;;;;4933364;28;20117;-49
2023/08/13 01:30:11;;;;;;;5.30;2.33;;;21.70;59.30;;;;;;4974240;28;20129;-50
2023/08/13 01:32:50;;;;;;;4.45;3.13;;;21.70;59.20;;;;;;4972585;28;20517;-49
2023/08/13 01:35:21;;;;;;;2.33;2.08;;;21.70;59.50;;;;;;4971900;28;20714;-49
2023/08/13 01:37:50;;;;;;;3.67;2.72;;;21.60;59.20;;;;;;4971194;28;20062;-50
2023/08/13 01:40:21;;;;;;;5.28;2.38;;;21.60;59.10;;;;;;4959302;28;20051;-50
2023/08/13 01:42:52;;;;;;;;;;;21.50;59.10;;;;;;4956223;28;20078;-46
2023/08/13 01:45:24;;;;;;;4.30;2.05;;;21.60;58.60;;;;;;4973543;28;19954;-47
2023/08/13 01:47:53;;;;;;;6.68;2.45;;;21.50;58.70;;;;;;4966584;28;20098;-51
2023/08/13 01:50:23;;;;;;;4.93;2.40;;;21.40;58.90;;;;;;4973469;28;20498;-47
2023/08/13 01:52:50;;;;;;;4.22;2.13;;;21.40;58.90;;;;;;4968904;28;20040;-51
2023/08/13 01:55:16;;;;;;;2.72;1.85;;;21.30;59.00;;;;;;4970283;28;20070;-50
2023/08/13 01:57:47;;;;;;;4.22;2.15;;;21.30;59.00;;;;;;4953436;28;20039;-47
2023/08/13 02:00:13;;;;;;;5.40;2.28;;;21.30;59.40;;;;;;4974701;28;20113;-50
2023/08/13 02:02:40;;;;;;;4.20;2.30;;;21.30;59.40;;;;;;4968827;28;20051;-49
2023/08/13 02:05:07;;;;;;;3.05;2.40;;;21.20;59.50;;;;;;4969515;28;20039;-47
2023/08/13 02:07:36;;;;;;;6.18;2.60;;;21.20;59.70;;;;;;4971627;28;20105;-50
2023/08/13 02:10:06;;;;;;;4.72;2.35;;;21.20;59.80;;;;;;4973255;28;20047;-51
2023/08/13 02:12:41;;;;;;;3.78;2.17;;;21.10;59.90;;;;;;4973100;28;20491;-49
2023/08/13 02:15:08;;;;;;;3.42;2.10;;;21.10;59.90;;;;;;4972157;28;20189;-46
2023/08/13 02:17:42;;;;;;;4.03;2.28;;;21.10;60.10;;;;;;4963167;28;20050;-51
2023/08/13 02:20:15;;;;;;;4.07;1.92;;;21.10;60.10;;;;;;4972797;28;20046;-49
2023/08/13 02:22:45;;;;;;;3.15;1.75;;;21.10;60.10;;;;;;4971772;28;20295;-50
2023/08/13 02:25:17;;;;;;;4.03;1.90;;;21.10;60.40;;;;;;4971068;28;20047;-51
2023/08/13 02:27:45;;;;;;;3.70;2.40;;;21.10;60.20;;;;;;4968941;28;20383;-50
2023/08/13 02:30:12;;;;;;;2.65;1.92;;;21.10;60.30;;;;;;4957437;28;20409;-50
2023/08/13 02:32:44;;;;;;;5.93;2.08;;;21.00;60.20;;;;;;4971641;28;20499;-51
2023/08/13 02:35:11;;;;;;;3.15;2.08;;;21.00;60.20;;;;;;4969679;28;20047;-49
2023/08/13 02:37:37;;;;;;;4.88;2.45;;;21.00;60.90;;;;;;4966843;28;20043;-50
2023/08/13 02:40:07;;;;;;;3.42;2.97;;;21.00;60.30;;;;;;4971773;28;20459;-51
2023/08/13 02:42:36;;;;;;;3.40;2.05;;;21.00;60.30;;;;;;4968010;28;20047;-49
2023/08/13 02:45:06;;;;;;;2.33;2.00;;;20.90;60.10;;;;;;4950054;28;20158;-47
2023/08/13 02:47:33;;;;;;;3.30;2.05;;;20.90;60.20;;;;;;4953556;28;20069;-47
2023/08/13 02:50:03;;;;;;;3.92;2.40;;;20.90;60.20;;;;;;4967780;28;20055;-48
2023/08/13 02:52:34;;;;;;;3.85;2.47;;;20.90;60.50;;;;;;4965436;28;20081;-48
2023/08/13 02:55:01;;;;;;;5.15;2.00;;;20.90;60.60;;;;;;4970884;28;20038;-50
2023/08/13 02:57:28;;;;;;;2.83;2.45;;;20.80;60.40;;;;;;4971317;28;20420;-47
2023/08/13 03:00:02;;;;;;;5.28;2.78;;;20.80;60.60;;;;;;4971986;28;20038;-51
2023/08/13 03:02:31;;;;;;;5.07;2.47;;;20.80;60.60;;;;;;4968011;28;20412;-50
2023/08/13 03:04:58;;;;;;;6.22;3.08;;;20.80;60.60;;;;;;4970125;28;20084;-51
2023/08/13 03:07:27;;;;;;;6.03;3.10;;;20.70;60.50;;;;;;4969722;28;20131;-49
2023/08/13 03:09:56;;;;;;;3.15;2.13;;;20.70;60.50;;;;;;4971961;28;20070;-49
2023/08/13 03:12:23;;;;;;;6.22;3.10;;;20.70;60.40;;;;;;4955580;28;20089;-50
2023/08/13 03:14:53;;;;;;;4.65;2.50;;;20.70;60.40;;;;;;4970209;28;20035;-51
2023/08/13 03:17:20;;;;;;;3.10;2.13;;;20.60;60.50;;;;;;4965999;28;20104;-47
2023/08/13 03:19:47;;;;;;;5.30;2.33;;;20.60;60.50;;;;;;4970954;28;20115;-48
2023/08/13 03:22:14;;;;;;;2.90;1.90;;;20.60;60.70;;;;;;4969901;28;20098;-47
2023/08/13 03:24:41;;;;;;;4.03;1.65;;;20.50;60.60;;;;;;4970233;28;20448;-46
2023/08/13 03:27:08;;;;;;;4.60;1.85;;;20.50;60.40;;;;;;4971594;28;20065;-47
2023/08/13 03:29:35;;;;;;;2.17;1.98;;;20.40;60.50;;;;;;4952579;28;20039;-49
2023/08/13 03:32:05;;;;;;;3.33;2.33;;;20.40;60.50;;;;;;4970100;28;20050;-46
2023/08/13 03:34:35;;;;;;;3.78;2.03;;;20.40;60.70;;;;;;4970018;28;20031;-51
2023/08/13 03:37:01;;;;;;;4.40;1.90;;;20.30;60.70;;;;;;4969242;28;20046;-49
2023/08/13 03:39:31;;;;;;;3.25;1.77;;;20.30;60.80;;;;;;4972560;28;20043;-48
2023/08/13 03:42:00;;;;;;;3.20;1.70;;;20.30;60.90;;;;;;4967253;28;20569;-49
2023/08/13 03:44:27;;;;;;;5.38;2.08;;;20.20;60.60;;;;;;4969548;28;20446;-50
2023/08/13 03:46:58;;;;;;;2.50;1.70;;;20.20;60.80;;;;;;4968898;28;20287;-51
2023/08/13 03:49:25;;;;;;;3.15;1.70;;;20.20;61.00;;;;;;4972210;28;20521;-51
2023/08/13 03:51:55;;;;;;;5.78;1.98;;;20.10;61.00;;;;;;4970647;28;20038;-50
2023/08/13 03:54:22;;;;;;;3.63;2.00;;;20.10;61.00;;;;;;4967479;28;20078;-50
2023/08/13 03:56:51;;;;;;;4.82;1.70;;;20.00;61.00;;;;;;4952576;28;20679;-50
2023/08/13 03:59:25;;;;;;;4.85;2.00;;;20.00;61.40;;;;;;4964332;28;20054;-47
2023/08/13 04:01:58;;;;;;;4.10;1.90;;;20.00;61.20;;;;;;4966735;28;20039;-51
2023/08/13 04:04:32;;;;;;;3.63;1.73;;;19.90;61.20;;;;;;4970476;28;20061;-51
2023/08/13 04:06:59;;;;;;;4.00;1.83;;;19.90;61.20;;;;;;4967114;28;20051;-51
2023/08/13 04:09:26;;;;;;;3.03;1.70;;;19.90;61.30;;;;;;4968411;28;20062;-48
2023/08/13 04:12:00;;;;;;;4.93;2.22;;;19.90;61.50;;;;;;4966907;28;20106;-51
2023/08/13 04:14:32;;;;;;;2.75;1.40;;;19.80;61.40;;;;;;4951985;28;20043;-51
2023/08/13 04:16:59;;;;;;;4.30;1.70;;;19.80;61.50;;;;;;4952498;28;20410;-47
2023/08/13 04:19:31;;;;;;;2.28;1.40;;;19.80;61.60;;;;;;4960188;28;20059;-51
2023/08/13 04:22:00;;;;;;;3.67;1.55;;;19.80;61.90;;;;;;4969453;28;20131;-47
2023/08/13 04:24:28;;;;;;;5.20;1.70;;;19.80;61.80;;;;;;4968608;28;20138;-49
2023/08/13 04:26:54;;;;;;;1.80;1.67;;;19.70;61.70;;;;;;4968745;28;20070;-51
2023/08/13 04:29:23;;;;;;;3.42;1.50;;;19.70;61.70;;;;;;4950453;28;20069;-47
2023/08/13 04:31:50;;;;;;;5.43;1.65;;;19.70;61.70;;;;;;4969378;28;20050;-50
2023/08/13 04:34:17;;;;;;;4.45;1.85;;;19.70;61.80;;;;;;4968520;28;20110;-50
2023/08/13 04:36:44;;;;;;;2.60;1.60;;;19.70;62.00;;;;;;4968886;28;20449;-49
2023/08/13 04:39:12;;;;;;;2.45;1.58;;;19.70;62.00;;;;;;4967507;28;20508;-48
2023/08/13 04:41:40;;;;;;;5.60;2.15;;;19.70;62.20;;;;;;4960065;28;20058;-51
2023/08/13 04:44:07;;;;;;;4.90;1.88;;;19.70;62.30;;;;;;4970129;28;20433;-51
2023/08/13 04:46:37;;;;;;;1.60;1.50;;;19.70;62.50;;;;;;4950870;28;20105;-50
2023/08/13 04:49:10;;;;;;;2.92;1.58;;;19.70;62.70;;;;;;4973074;28;20042;-51
2023/08/13 04:51:40;;;;;;;4.78;1.70;;;19.70;62.80;;;;;;4969973;28;20046;-50
2023/08/13 04:54:10;;;;;;;6.22;2.33;;;19.70;63.00;;;;;;4968407;28;20051;-51
2023/08/13 04:56:39;;;;;;;4.43;1.92;;;19.70;62.90;;;;;;4969585;28;20061;-50
2023/08/13 04:59:09;;;;;;;4.68;1.90;;;19.70;63.70;;;;;;4967269;28;20145;-49
2023/08/13 05:01:37;;;;;;;3.70;1.98;;;19.70;63.20;;;;;;4971109;28;20067;-50
2023/08/13 05:04:04;;;;;;;3.55;2.10;;;19.70;63.40;;;;;;4970587;28;20086;-51
2023/08/13 05:06:34;;;;;;;4.47;1.98;;;19.70;63.50;;;;;;4957530;28;20416;-50
2023/08/13 05:09:01;;;;;;;2.20;1.65;;;19.80;64.40;;;;;;4954491;28;20043;-49
2023/08/13 05:11:27;;;;;;;7.13;2.00;;;19.80;63.80;;;;;;4957142;28;20070;-50
2023/08/13 05:13:57;;;;;;;4.80;2.28;;;19.80;63.80;;;;;;5236051;23;20045;-51
2023/08/13 05:16:24;;;;;;;6.32;1.95;;;19.90;64.00;;;;;;5045607;28;20493;-50
2023/08/13 05:18:55;;;;;;;4.00;2.00;;;19.90;63.90;;;;;;5031368;28;20038;-50
2023/08/13 05:21:25;;;;;;;3.47;1.90;;;20.00;64.00;;;;;;5027227;28;20634;-50
2023/08/13 05:23:58;;;;;;;5.57;2.08;;;20.10;64.10;;;;;;5023296;28;20049;-47
2023/08/13 05:26:27;;;;;;;3.55;2.00;;;20.10;64.40;;;;;;5031904;28;20582;-48
2023/08/13 05:29:12;;;;;;;3.20;1.77;;;20.20;64.20;;;;;;5033001;28;20121;-50
2023/08/13 05:31:39;;;;;;;6.53;2.13;;;20.20;64.20;;;;;;5010929;28;20046;-49
2023/08/13 05:34:11;;;;;;;3.60;2.10;;;20.20;64.20;;;;;;5014631;28;20569;-50
2023/08/13 05:36:38;;;;;;;3.90;2.57;;;20.30;64.20;;;;;;5018027;28;20037;-50
2023/08/13 05:39:09;;;;;;;5.13;2.88;;;20.40;64.10;;;;;;5014597;28;20347;-52
2023/08/13 05:41:38;;;;;;;4.05;1.83;;;20.40;64.20;;;;;;5032063;28;20069;-50
2023/08/13 05:44:10;;;;;;;4.28;2.60;;;20.50;64.30;;;;;;5031626;28;20041;-52
2023/08/13 05:46:37;;;;;;;3.20;1.67;;;20.60;64.30;;;;;;5012752;28;20082;-48
2023/08/13 05:49:07;;;;;;;5.30;1.67;;;20.60;64.40;;;;;;5032028;28;20037;-51
2023/08/13 05:51:33;;;;;;;6.65;2.00;;;20.70;64.40;;;;;;5032809;28;20108;-49
2023/08/13 05:54:01;;;;;;;3.42;1.80;;;20.80;64.60;;;;;;5031812;28;20071;-51
2023/08/13 05:56:32;;;;;;;5.88;1.80;;;20.80;64.40;;;;;;5030895;28;20072;-48
2023/08/13 05:58:59;;;;;;;2.58;1.92;;;20.90;64.50;;;;;;5031242;28;20096;-48
2023/08/13 06:01:28;;;;;;;3.15;1.80;;;21.00;64.40;;;;;;5032902;28;20079;-51
2023/08/13 06:03:55;;;;;;;3.65;2.17;;;21.00;64.20;;;;;;5030921;28;20122;-49
2023/08/13 06:06:27;;;;;;;7.35;1.70;;;21.10;64.00;;;;;;5027452;28;20041;-52
2023/08/13 06:08:54;;;;;;;3.50;2.00;;;21.10;63.90;;;;;;5031574;28;20052;-51
2023/08/13 06:11:21;;;;;;;5.72;1.98;;;21.20;63.70;;;;;;5031071;28;20044;-51
2023/08/13 06:13:49;;;;;;;4.03;2.25;;;21.20;63.70;;;;;;5029706;28;20126;-54
2023/08/13 06:16:16;;;;;;;4.00;1.98;;;21.30;63.80;;;;;;5029394;28;20084;-55
2023/08/13 06:18:43;;;;;;;4.15;2.00;;;21.30;63.80;;;;;;5029966;28;20053;-52
2023/08/13 06:21:13;;;;;;;4.57;1.65;;;21.30;63.80;;;;;;5030650;28;20049;-54
2023/08/13 06:23:41;;;;;;;5.30;1.77;;;21.40;64.00;;;;;;5030540;28;20063;-56
2023/08/13 06:26:19;;;;;;;3.10;1.70;;;21.40;64.00;;;;;;5031960;28;20120;-50
2023/08/13 06:28:48;;;;;;;4.90;2.10;;;21.40;64.20;;;;;;5029635;28;20117;-50
2023/08/13 06:31:17;;;;;;;3.95;2.03;;;21.40;64.00;;;;;;5030746;28;20101;-49
2023/08/13 06:34:04;;;;;;;3.55;1.70;;;21.40;63.90;;;;;;5025918;28;20083;-53
2023/08/13 06:36:35;;;;;;;3.20;1.70;;;21.40;63.90;;;;;;5030511;28;20615;-53
2023/08/13 06:39:03;;;;;;;6.30;2.40;;;21.40;63.90;;;;;;5024938;28;20057;-55
2023/08/13 06:41:31;;;;;;;5.13;1.80;;;21.50;64.00;;;;;;5014659;28;20053;-55
2023/08/13 06:44:01;;;;;;;4.60;1.88;;;21.50;64.00;;;;;;5011187;28;20045;-52
2023/08/13 06:46:28;;;;;;;2.80;2.08;;;21.50;63.90;;;;;;5029188;28;20051;-53
2023/08/13 06:48:55;;;;;;;4.50;2.00;;;21.50;63.90;;;;;;5027412;28;20052;-55
2023/08/13 06:51:22;;;;;;;4.03;1.92;;;21.50;64.00;;;;;;5025677;28;20542;-55
2023/08/13 06:53:48;;;;;;;5.93;2.55;;;21.50;64.00;;;;;;5030482;28;20578;-54
2023/08/13 06:56:15;;;;;;;6.30;1.98;;;21.50;63.90;;;;;;5031588;28;20049;-51
2023/08/13 06:58:42;;;;;;;3.67;2.13;;;21.60;63.90;;;;;;5029723;28;20033;-51
2023/08/13 07:01:09;;;;;;;5.63;2.50;;;21.60;63.60;;;;;;5031288;28;20543;-53
2023/08/13 07:03:36;;;;;;;5.55;2.65;;;21.70;63.30;;;;;;5029305;28;20075;-50
2023/08/13 07:06:03;;;;;;;4.40;2.03;;;21.70;63.40;;;;;;5029136;28;20037;-55
2023/08/13 07:08:29;;;;;;;4.38;1.80;;;21.80;63.00;;;;;;5031657;28;20514;-53
2023/08/13 07:10:56;;;;;;;2.42;1.42;;;21.80;62.90;;;;;;5030200;28;20491;-51
2023/08/13 07:13:23;;;;;;;4.20;1.42;;;21.90;62.70;;;;;;5023792;28;20124;-53
2023/08/13 07:15:50;;;;;;;4.30;1.50;;;22.00;62.50;;;;;;5028653;28;20073;-52
2023/08/13 07:18:16;;;;;;;5.63;1.88;;;22.00;62.80;;;;;;5029503;28;20052;-51
2023/08/13 07:20:43;;;;;;;3.53;1.20;;;22.10;62.40;;;;;;5028052;28;20847;-51
2023/08/13 07:23:10;;;;;;;1.92;1.17;;;22.10;62.40;;;;;;5026895;28;20041;-51
2023/08/13 07:25:37;;;;;;;3.50;1.55;;;22.20;62.40;;;;;;5029646;28;20120;-50
2023/08/13 07:28:06;;;;;;;2.78;1.60;;;22.30;62.30;;;;;;5029961;28;20100;-56
2023/08/13 07:30:33;;;;;;;4.88;1.73;;;22.30;61.20;;;;;;5025520;28;20073;-53
2023/08/13 07:33:00;;;;;;;13.27;2.70;;;22.40;61.70;;;;;;5027199;28;20063;-50
2023/08/13 07:35:26;;;;;;;3.13;1.20;;;22.50;60.60;;;;;;5030673;28;20044;-55
2023/08/13 07:37:53;;;;;;;2.80;1.50;;;22.60;60.20;;;;;;5029624;28;20045;-53
2023/08/13 07:40:20;;;;;;;3.83;1.50;;;22.70;60.00;;;;;;5030348;28;20132;-52
2023/08/13 07:42:46;;;;;;;3.40;1.58;;;22.70;60.10;;;;;;5028860;28;20077;-55
2023/08/13 07:45:14;;;;;;;4.07;1.67;;;22.80;60.30;;;;;;5029967;28;20124;-52
2023/08/13 07:47:41;;;;;;;3.15;1.45;;;22.90;60.10;;;;;;5029277;28;20051;-55
2023/08/13 07:50:08;;;;;;;6.93;1.63;;;23.00;59.30;;;;;;5030920;28;20037;-56
2023/08/13 07:52:35;;;;;;;4.35;2.38;;;23.10;59.20;;;;;;5028004;28;20558;-56
2023/08/13 07:55:02;;;;;;;5.03;1.20;;;23.10;59.20;;;;;;5028419;28;20095;-51
2023/08/13 07:57:30;;;;;;;5.00;1.33;;;23.20;59.20;;;;;;5029266;28;20057;-56
2023/08/13 07:59:57;;;;;;;5.40;1.10;;;23.30;58.80;;;;;;5028059;28;20041;-56
2023/08/13 08:02:31;;;;;;;5.18;2.00;;;23.40;58.00;;;;;;5029207;28;20053;-55
2023/08/13 08:05:02;;;;;;;6.35;1.50;;;23.40;58.10;;;;;;5030585;28;20050;-52
2023/08/13 08:07:33;;;;;;;3.60;1.63;;;23.50;58.30;;;;;;5029216;28;20132;-54
2023/08/13 08:10:05;;;;;;;4.45;1.38;;;23.50;58.90;;;;;;5028588;28;20045;-53
2023/08/13 08:12:32;;;;;;;6.50;1.88;;;23.60;58.50;;;;;;5029055;28;20045;-55
2023/08/13 08:15:06;;;;;;;4.35;1.30;;;23.70;57.80;;;;;;5030241;28;20546;-52
2023/08/13 08:17:35;;;;;;;3.70;2.03;;;23.80;57.30;;;;;;5028655;28;20049;-51
2023/08/13 08:20:02;;;;;;;2.72;1.48;;;23.80;57.90;;;;;;5030432;28;20044;-54
2023/08/13 08:22:35;;;;;;;4.78;1.65;;;23.90;57.80;;;;;;5028747;28;20061;-54
2023/08/13 08:25:07;;;;;;;4.95;1.63;;;24.00;58.30;;;;;;5028853;28;20056;-51
2023/08/13 08:27:35;;;;;;;4.38;1.48;;;24.10;57.80;;;;;;5025273;28;20812;-64
2023/08/13 08:30:02;;;;;;;4.82;1.48;;;24.10;57.50;;;;;;5029065;28;20060;-64
2023/08/13 08:32:30;;;;;;;2.67;1.58;;;24.10;57.10;;;;;;5028945;28;20045;-63
2023/08/13 08:34:59;;;;;;;4.68;1.50;;;24.20;57.10;;;;;;5027981;28;20037;-63
2023/08/13 08:37:26;;;;;;;3.10;1.52;;;24.30;56.60;;;;;;5028733;28;20055;-63
2023/08/13 08:39:52;;;;;;;4.47;1.50;;;24.30;57.20;;;;;;5030383;28;20120;-63
2023/08/13 08:42:20;;;;;;;4.85;1.15;;;24.40;57.40;;;;;;5028462;28;20573;-63
2023/08/13 08:44:48;;;;;;;4.88;1.98;;;24.50;57.30;;;;;;5028783;28;20051;-63
2023/08/13 08:47:18;;;;;;;4.28;2.40;;;24.60;57.10;;;;;;5028789;28;20091;-63
2023/08/13 08:49:48;;;;;;;3.83;1.48;;;24.80;56.30;;;;;;5029417;28;20040;-63
2023/08/13 08:52:17;;;;;;;2.08;1.33;;;24.90;55.70;;;;;;5029186;28;20056;-63
2023/08/13 08:54:44;;;;;;;3.78;1.63;;;25.00;55.60;;;;;;5028859;28;20061;-64
2023/08/13 08:57:12;;;;;;;6.45;2.10;;;25.10;55.30;;;;;;4998618;28;20162;-64
2023/08/13 08:59:39;;;;;;;3.53;1.42;;;25.30;55.30;;;;;;5027630;28;20037;-63
2023/08/13 09:02:06;;;;;;;7.00;2.22;;;25.40;54.40;;;;;;5026271;28;20057;-63
2023/08/13 09:04:33;;;;;;;3.30;1.60;;;25.50;53.90;;;;;;5034300;28;20049;-63
2023/08/13 09:07:03;;;;;;;3.08;1.92;;;25.60;53.90;;;;;;5026642;28;20037;-64
2023/08/13 09:09:30;;;;;;;4.40;1.98;;;25.70;53.40;;;;;;5028930;28;20060;-64
2023/08/13 09:11:58;;;;;;;5.38;1.70;;;25.80;53.20;;;;;;4997279;28;20131;-63
2023/08/13 09:14:25;;;;;;;4.53;1.42;;;25.90;53.40;;;;;;5025625;28;20177;-63
2023/08/13 09:16:55;;;;;;;4.05;1.75;;;26.00;53.40;;;;;;5030678;28;20046;-64
2023/08/13 09:19:24;;;;;;;3.63;1.23;;;26.20;52.50;;;;;;5028541;28;20703;-63
2023/08/13 09:22:01;;;;;;;3.03;1.20;;;26.20;52.40;;;;;;5028099;28;20041;-63
2023/08/13 09:24:38;;;;;;;4.53;1.20;;;26.30;51.70;;;;;;5024089;28;20044;-63
2023/08/13 09:27:08;;;;;;;3.45;1.17;;;26.40;51.60;;;;;;5027887;28;20823;-63
2023/08/13 09:29:37;;;;;;;5.22;1.83;;;26.50;51.70;;;;;;5027825;28;20046;-63
2023/08/13 09:32:04;;;;;;;3.03;1.50;;;26.60;51.70;;;;;;5028492;28;20056;-63
2023/08/13 09:34:33;;;;;;;4.55;1.70;;;26.70;51.40;;;;;;5027325;28;20072;-64
2023/08/13 09:37:00;;;;;;;4.65;1.58;;;26.70;51.40;;;;;;5028339;28;20048;-64
2023/08/13 09:39:28;;;;;;;3.30;1.27;;;26.70;50.80;;;;;;5029451;28;20076;-63
2023/08/13 09:41:55;;;;;;;2.95;1.02;;;26.80;50.80;;;;;;5027823;28;20049;-63
2023/08/13 09:44:27;;;;;;;3.85;2.08;;;26.80;50.90;;;;;;5026113;28;20137;-63
2023/08/13 09:46:58;;;;;;;2.47;1.08;;;26.80;50.80;;;;;;5028123;28;20041;-63
2023/08/13 09:49:28;;;;;;;7.68;1.48;;;26.80;50.80;;;;;;5022733;28;20041;-64
2023/08/13 09:51:59;;;;;;;3.88;1.20;;;26.90;50.50;;;;;;5030858;28;20047;-63
2023/08/13 09:54:46;;;;;;;3.78;1.40;;;27.00;51.10;;;;;;5033482;28;20069;-65
2023/08/13 09:57:15;;;;;;;3.35;1.80;;;27.10;50.50;;;;;;5029556;28;20052;-64
2023/08/13 09:59:42;;;;;;;4.18;1.38;;;27.10;50.50;;;;;;5030390;28;20061;-64
2023/08/13 10:02:10;;;;;;;3.35;1.20;;;27.20;50.10;;;;;;5032142;28;20045;-63
2023/08/13 10:04:41;;;;;;;6.38;2.03;;;27.30;50.10;;;;;;5031484;28;20042;-64
2023/08/13 10:07:08;;;;;;;3.58;1.40;;;27.40;49.60;;;;;;5031175;28;20465;-64
2023/08/13 10:09:35;;;;;;;4.22;1.35;;;27.40;49.50;;;;;;5031738;28;20045;-65
2023/08/13 10:12:05;;;;;;;3.78;1.40;;;27.50;49.80;;;;;;5031657;28;20578;-63
2023/08/13 10:14:32;;;;;;;3.00;1.63;;;27.60;49.10;;;;;;5031333;28;20520;-64
2023/08/13 10:17:06;;;;;;;3.20;1.40;;;27.60;48.90;;;;;;5030432;28;20111;-63
2023/08/13 10:19:40;;;;;;;3.53;1.40;;;27.80;48.20;;;;;;5029951;28;20411;-64
2023/08/13 10:22:11;;;;;;;3.30;1.42;;;27.80;48.30;;;;;;5028521;28;20128;-64
2023/08/13 10:24:42;;;;;;;4.47;1.65;;;27.90;48.10;;;;;;5026661;28;20140;-63
2023/08/13 10:27:11;;;;;;;5.93;1.70;;;28.00;48.60;;;;;;5028498;28;20103;-64
2023/08/13 10:29:42;;;;;;;3.10;1.83;;;28.00;48.30;;;;;;5031082;28;20115;-63
2023/08/13 10:32:16;;;;;;;4.35;2.05;;;28.10;47.60;;;;;;5031151;28;20073;-64
2023/08/13 10:34:47;;;;;;;4.35;1.92;;;28.10;47.50;;;;;;5030137;28;20073;-63
2023/08/13 10:37:15;;;;;;;5.78;1.50;;;28.20;48.70;;;;;;5029149;28;20091;-64
2023/08/13 10:39:43;;;;;;;2.53;1.23;;;28.20;47.70;;;;;;5030326;28;20112;-63
2023/08/13 10:42:46;;;;;;;3.95;1.80;;;28.20;48.60;;;;;;5028712;28;20037;-64
2023/08/13 10:45:16;;;;;;;2.80;1.85;;;28.30;48.30;;;;;;5037332;28;20603;-63
2023/08/13 10:47:49;;;;;;;5.32;2.10;;;28.30;47.90;;;;;;5030494;28;20049;-64
2023/08/13 10:50:30;;;;;;;6.88;1.80;;;28.30;48.30;;;;;;5031261;28;20111;-64
2023/08/13 10:53:01;;;;;;;4.85;1.85;;;28.30;47.50;;;;;;5028781;28;20499;-64
2023/08/13 10:55:40;;;;;;;4.55;1.98;;;28.30;47.80;;;;;;5024400;28;20876;-64
2023/08/13 10:58:22;;;;;;;4.10;1.90;;;28.30;47.80;;;;;;5029914;28;20037;-64
2023/08/13 11:00:49;;;;;;;;;;;28.30;48.00;;;;;;5030587;28;20060;-64
2023/08/13 11:03:21;;;;;;;3.05;1.38;;;28.40;48.60;;;;;;5029647;28;19967;-64
2023/08/13 11:05:49;;;;;;;4.95;1.77;;;28.40;48.60;;;;;;5030352;28;20063;-64
2023/08/13 11:08:20;;;;;;;4.75;2.00;;;28.40;48.20;;;;;;5009057;28;20089;-64
2023/08/13 11:11:07;;;;;;;3.20;1.92;;;28.50;48.20;;;;;;5028177;28;20523;-63
2023/08/13 11:13:33;;;;;;;4.55;1.58;;;28.60;47.60;;;;;;5030068;28;20057;-63
2023/08/13 11:16:01;;;;;;;2.88;1.35;;;28.60;47.80;;;;;;5027622;28;20072;-64
2023/08/13 11:18:27;;;;;;;5.03;1.95;;;28.70;47.80;;;;;;5030352;28;20076;-62
2023/08/13 11:20:54;;;;;;;3.17;1.50;;;28.80;47.00;;;;;;5028956;28;20474;-62
2023/08/13 11:23:22;;;;;;;6.75;1.58;;;28.80;46.60;;;;;;5028819;28;20128;-63
2023/08/13 11:25:49;;;;;;;6.55;1.45;;;28.90;46.10;;;;;;5031140;28;20045;-62
2023/08/13 11:28:19;;;;;;;4.68;1.73;;;28.90;46.00;;;;;;5030140;28;20048;-63
2023/08/13 11:30:46;;;;;;;7.95;1.90;;;28.90;45.90;;;;;;5031022;28;20124;-63
2023/08/13 11:33:14;;;;;;;2.88;1.50;;;28.90;45.90;;;;;;5028949;28;20460;-63
2023/08/13 11:35:41;;;;;;;2.25;1.40;;;29.00;44.80;;;;;;5030161;28;20037;-63
2023/08/13 11:38:08;;;;;;;4.47;1.38;;;28.90;44.10;;;;;;5030127;28;20095;-63
2023/08/13 11:40:36;;;;;;;6.05;2.05;;;28.90;43.80;;;;;;5028403;28;20125;-62
2023/08/13 11:43:03;;;;;;;3.25;1.63;;;28.80;43.80;;;;;;5025987;28;20167;-63
2023/08/13 11:45:31;;;;;;;4.55;1.65;;;28.70;44.30;;;;;;5025606;28;20038;-62
2023/08/13 11:48:21;;;;;;;5.63;1.42;;;28.70;44.60;;;;;;5026011;28;20069;-62
2023/08/13 11:50:55;;;;;;;2.40;1.52;;;28.70;45.00;;;;;;5026140;28;20037;-61
2023/08/13 11:53:43;;;;;;;3.88;1.88;;;28.70;45.10;;;;;;5028575;28;20042;-63
2023/08/13 11:56:11;;;;;;;2.92;1.45;;;28.70;44.80;;;;;;5026060;28;20650;-62
2023/08/13 11:58:39;;;;;;;2.45;1.48;;;28.70;45.50;;;;;;5022519;28;20050;-62
2023/08/13 12:01:06;;;;;;;3.85;1.70;;;28.80;45.60;;;;;;5027494;28;20049;-63
2023/08/13 12:03:36;;;;;;;3.92;2.13;;;28.90;45.60;;;;;;5022753;28;20041;-62
2023/08/13 12:06:05;;;;;;;3.25;1.40;;;28.90;44.90;;;;;;5029086;28;20120;-62
2023/08/13 12:08:32;;;;;;;2.78;1.45;;;28.90;45.30;;;;;;5028540;28;20041;-62
2023/08/13 12:10:58;;;;;;;2.40;1.35;;;29.00;45.10;;;;;;5029390;28;20069;-62
2023/08/13 12:13:28;;;;;;;2.70;1.90;;;29.00;45.20;;;;;;5027883;28;20119;-62
2023/08/13 12:15:55;;;;;;;3.03;1.58;;;29.10;45.30;;;;;;5029072;28;20065;-62
2023/08/13 12:18:22;;;;;;;8.52;1.95;;;29.10;45.10;;;;;;5028260;28;20095;-62
2023/08/13 12:20:49;;;;;;;4.40;1.67;;;29.10;45.60;;;;;;5004284;28;20045;-63
2023/08/13 12:23:15;;;;;;;2.90;1.73;;;29.10;45.00;;;;;;5027466;28;20065;-62
2023/08/13 12:25:42;;;;;;;3.90;1.52;;;29.20;45.30;;;;;;5031478;28;20575;-63
2023/08/13 12:28:12;;;;;;;2.15;1.10;;;29.20;44.70;;;;;;5028160;28;20045;-63
2023/08/13 12:30:39;;;;;;;2.88;1.38;;;29.20;44.40;;;;;;5027588;28;20061;-62
2023/08/13 12:33:06;;;;;;;2.65;1.90;;;29.20;44.20;;;;;;5024932;28;20046;-62
2023/08/13 12:35:32;;;;;;;3.38;1.42;;;29.20;44.10;;;;;;5029304;28;20403;-62
2023/08/13 12:37:59;;;;;;;6.32;2.05;;;29.20;43.70;;;;;;5029080;28;20041;-62
2023/08/13 12:40:26;;;;;;;3.45;1.75;;;29.20;43.50;;;;;;5030346;28;20093;-63
2023/08/13 12:42:55;;;;;;;1.38;1.20;;;29.30;43.20;;;;;;5028012;28;20473;-63
2023/08/13 12:45:21;;;;;;;1.95;1.23;;;29.40;42.90;;;;;;5028319;28;20045;-63
2023/08/13 12:47:48;;;;;;;2.67;1.20;;;29.40;42.80;;;;;;5028682;28;20114;-63
2023/08/13 12:50:15;;;;;;;4.03;1.60;;;29.50;44.50;;;;;;5028272;28;20045;-61
2023/08/13 12:52:41;;;;;;;3.67;1.45;;;29.60;43.20;;;;;;5028180;28;20044;-63
2023/08/13 12:55:08;;;;;;;3.47;0.98;;;29.80;43.20;;;;;;5027914;28;20411;-62
2023/08/13 12:57:35;;;;;;;5.40;1.38;;;30.00;43.60;;;;;;5025531;28;20069;-63
2023/08/13 13:00:04;;;;;;;2.58;1.80;;;30.20;43.20;;;;;;5027955;28;20128;-63